00MI weather

Dow Chemical Heliport
Ludington, Michigan, United States

Public forecast

Using degrees Fahrenheit for public forecast. Weather courtesy of forecast.io.

METAR (pilot weather report)

Closest report is Mason County Airport, 0.9 nm (1.6 km) NNE. Retrieved 2019/07/16 04:37 UTC (0 seconds ago):

KLDM 160437Z AUTO 23014G21KT 10SM CLR 24/19 A2994 RMK AO2 T02380190

TAF (pilot weather forecast)

Forecast is more than 12 hours old.

Closest forecast is Manistee Co Blacker Airport, 20.7 nm (38.4 km) NNE. Retrieved 2019/07/15 00:48 UTC (1 day ago):

TAF KMBL 152347Z 1600/1624 21009G18KT P6SM SCT040 BKN100 FM160300 21008KT P6SM SCT040 BKN100 WS015/24035KT FM160400 22011G18KT P6SM FEW040 SCT100 FM160900 22010G21KT P6SM FEW040 SCT100 FM161200 22010G19KT P6SM SCT120 FM162000 22011G19KT P6SM BKN060 FM162100 22010KT P6SM SCT070